sensor_id;sensor_type;location;lat;lon;timestamp;P1;durP1;ratioP1;P2;durP2;ratioP2
8317;SDS011;4196;48.926;8.964;2022-10-31T00:01:36;6.67;;;4.40;;
8317;SDS011;4196;48.926;8.964;2022-10-31T00:04:24;4.77;;;4.13;;
8317;SDS011;4196;48.926;8.964;2022-10-31T00:07:10;9.03;;;4.57;;
8317;SDS011;4196;48.926;8.964;2022-10-31T00:09:57;8.93;;;4.60;;
8317;SDS011;4196;48.926;8.964;2022-10-31T00:12:43;8.53;;;5.20;;
8317;SDS011;4196;48.926;8.964;2022-10-31T00:15:30;7.73;;;4.90;;
8317;SDS011;4196;48.926;8.964;2022-10-31T00:18:16;6.13;;;4.60;;
8317;SDS011;4196;48.926;8.964;2022-10-31T00:21:02;7.43;;;5.00;;
8317;SDS011;4196;48.926;8.964;2022-10-31T00:23:49;9.17;;;5.03;;
8317;SDS011;4196;48.926;8.964;2022-10-31T00:26:36;9.13;;;4.77;;
8317;SDS011;4196;48.926;8.964;2022-10-31T00:29:22;13.60;;;4.83;;
8317;SDS011;4196;48.926;8.964;2022-10-31T00:32:08;9.37;;;5.03;;
8317;SDS011;4196;48.926;8.964;2022-10-31T00:34:55;7.37;;;4.90;;
8317;SDS011;4196;48.926;8.964;2022-10-31T00:37:41;9.23;;;5.20;;
8317;SDS011;4196;48.926;8.964;2022-10-31T00:40:28;8.93;;;4.27;;
8317;SDS011;4196;48.926;8.964;2022-10-31T00:43:14;9.43;;;5.60;;
8317;SDS011;4196;48.926;8.964;2022-10-31T00:46:01;8.00;;;4.90;;
8317;SDS011;4196;48.926;8.964;2022-10-31T00:48:47;10.70;;;4.60;;
8317;SDS011;4196;48.926;8.964;2022-10-31T00:51:33;8.17;;;4.40;;
8317;SDS011;4196;48.926;8.964;2022-10-31T00:54:20;11.07;;;4.47;;
8317;SDS011;4196;48.926;8.964;2022-10-31T00:57:06;7.40;;;4.67;;
8317;SDS011;4196;48.926;8.964;2022-10-31T00:59:53;8.00;;;4.20;;
8317;SDS011;4196;48.926;8.964;2022-10-31T01:02:39;9.80;;;4.60;;
8317;SDS011;4196;48.926;8.964;2022-10-31T01:05:26;8.63;;;4.53;;
8317;SDS011;4196;48.926;8.964;2022-10-31T01:08:12;9.30;;;4.43;;
8317;SDS011;4196;48.926;8.964;2022-10-31T01:11:04;7.27;;;3.90;;
8317;SDS011;4196;48.926;8.964;2022-10-31T01:13:51;5.80;;;4.50;;
8317;SDS011;4196;48.926;8.964;2022-10-31T01:16:39;8.93;;;4.43;;
8317;SDS011;4196;48.926;8.964;2022-10-31T01:19:25;6.97;;;4.40;;
8317;SDS011;4196;48.926;8.964;2022-10-31T01:22:15;5.53;;;3.90;;
8317;SDS011;4196;48.926;8.964;2022-10-31T01:25:02;6.63;;;4.70;;
8317;SDS011;4196;48.926;8.964;2022-10-31T01:27:49;6.47;;;4.10;;
8317;SDS011;4196;48.926;8.964;2022-10-31T01:30:35;10.10;;;4.47;;
8317;SDS011;4196;48.926;8.964;2022-10-31T01:33:21;6.90;;;4.27;;
8317;SDS011;4196;48.926;8.964;2022-10-31T01:36:12;8.93;;;4.30;;
8317;SDS011;4196;48.926;8.964;2022-10-31T01:39:10;7.33;;;4.70;;
8317;SDS011;4196;48.926;8.964;2022-10-31T01:41:59;6.33;;;4.40;;
8317;SDS011;4196;48.926;8.964;2022-10-31T01:44:51;8.67;;;4.63;;
8317;SDS011;4196;48.926;8.964;2022-10-31T01:47:41;25.70;;;5.70;;
8317;SDS011;4196;48.926;8.964;2022-10-31T01:50:32;5.73;;;4.20;;
8317;SDS011;4196;48.926;8.964;2022-10-31T01:53:23;7.17;;;4.03;;
8317;SDS011;4196;48.926;8.964;2022-10-31T01:56:13;11.73;;;4.50;;
8317;SDS011;4196;48.926;8.964;2022-10-31T01:59:02;11.67;;;5.13;;
8317;SDS011;4196;48.926;8.964;2022-10-31T02:01:53;7.17;;;4.23;;
8317;SDS011;4196;48.926;8.964;2022-10-31T02:04:40;8.63;;;4.03;;
8317;SDS011;4196;48.926;8.964;2022-10-31T02:07:30;7.70;;;4.43;;
8317;SDS011;4196;48.926;8.964;2022-10-31T02:10:24;6.60;;;3.53;;
8317;SDS011;4196;48.926;8.964;2022-10-31T02:13:11;7.30;;;4.20;;
8317;SDS011;4196;48.926;8.964;2022-10-31T02:16:05;7.23;;;3.70;;
8317;SDS011;4196;48.926;8.964;2022-10-31T02:18:52;6.37;;;4.37;;
8317;SDS011;4196;48.926;8.964;2022-10-31T02:21:42;6.90;;;4.30;;
8317;SDS011;4196;48.926;8.964;2022-10-31T02:31:00;7.00;;;4.10;;
8317;SDS011;4196;48.926;8.964;2022-10-31T02:33:53;6.00;;;4.30;;
8317;SDS011;4196;48.926;8.964;2022-10-31T02:36:57;4.50;;;3.73;;
8317;SDS011;4196;48.926;8.964;2022-10-31T02:39:56;11.07;;;4.47;;
8317;SDS011;4196;48.926;8.964;2022-10-31T02:43:27;4.53;;;3.50;;
8317;SDS011;4196;48.926;8.964;2022-10-31T02:49:22;7.27;;;4.57;;
8317;SDS011;4196;48.926;8.964;2022-10-31T02:52:27;5.70;;;4.07;;
8317;SDS011;4196;48.926;8.964;2022-10-31T02:58:20;5.90;;;3.73;;
8317;SDS011;4196;48.926;8.964;2022-10-31T03:04:25;5.93;;;3.87;;
8317;SDS011;4196;48.926;8.964;2022-10-31T03:19:48;10.57;;;4.90;;
8317;SDS011;4196;48.926;8.964;2022-10-31T03:22:38;10.43;;;5.73;;
8317;SDS011;4196;48.926;8.964;2022-10-31T03:25:27;8.30;;;5.47;;
8317;SDS011;4196;48.926;8.964;2022-10-31T03:28:16;9.20;;;5.40;;
8317;SDS011;4196;48.926;8.964;2022-10-31T03:31:09;6.60;;;5.13;;
8317;SDS011;4196;48.926;8.964;2022-10-31T03:33:58;5.73;;;4.67;;
8317;SDS011;4196;48.926;8.964;2022-10-31T03:36:49;6.47;;;4.63;;
8317;SDS011;4196;48.926;8.964;2022-10-31T03:39:38;7.83;;;4.10;;
8317;SDS011;4196;48.926;8.964;2022-10-31T03:42:30;9.27;;;4.63;;
8317;SDS011;4196;48.926;8.964;2022-10-31T03:45:23;10.67;;;4.90;;
8317;SDS011;4196;48.926;8.964;2022-10-31T03:48:16;6.47;;;3.80;;
8317;SDS011;4196;48.926;8.964;2022-10-31T03:51:16;6.17;;;3.77;;
8317;SDS011;4196;48.926;8.964;2022-10-31T03:54:24;6.23;;;3.63;;
8317;SDS011;4196;48.926;8.964;2022-10-31T03:57:25;5.87;;;4.43;;
8317;SDS011;4196;48.926;8.964;2022-10-31T04:00:26;11.87;;;4.57;;
8317;SDS011;4196;48.926;8.964;2022-10-31T04:03:14;7.30;;;3.97;;
8317;SDS011;4196;48.926;8.964;2022-10-31T04:06:09;6.73;;;4.50;;
8317;SDS011;4196;48.926;8.964;2022-10-31T04:08:59;7.67;;;4.03;;
8317;SDS011;4196;48.926;8.964;2022-10-31T04:11:50;5.03;;;3.83;;
8317;SDS011;4196;48.926;8.964;2022-10-31T04:15:09;5.83;;;3.23;;
8317;SDS011;4196;48.926;8.964;2022-10-31T04:17:58;6.37;;;4.00;;
8317;SDS011;4196;48.926;8.964;2022-10-31T04:20:47;6.50;;;3.67;;
8317;SDS011;4196;48.926;8.964;2022-10-31T04:23:37;4.77;;;3.60;;
8317;SDS011;4196;48.926;8.964;2022-10-31T04:26:32;6.93;;;4.17;;
8317;SDS011;4196;48.926;8.964;2022-10-31T04:29:19;5.93;;;3.40;;
8317;SDS011;4196;48.926;8.964;2022-10-31T04:32:05;5.90;;;4.30;;
8317;SDS011;4196;48.926;8.964;2022-10-31T04:34:52;11.27;;;4.57;;
8317;SDS011;4196;48.926;8.964;2022-10-31T04:37:38;4.93;;;3.90;;
8317;SDS011;4196;48.926;8.964;2022-10-31T04:40:27;7.80;;;4.53;;
8317;SDS011;4196;48.926;8.964;2022-10-31T04:43:13;8.67;;;3.53;;
8317;SDS011;4196;48.926;8.964;2022-10-31T04:46:02;6.73;;;4.60;;
8317;SDS011;4196;48.926;8.964;2022-10-31T04:48:48;8.57;;;5.13;;
8317;SDS011;4196;48.926;8.964;2022-10-31T04:51:35;9.17;;;6.30;;
8317;SDS011;4196;48.926;8.964;2022-10-31T04:54:22;6.53;;;5.70;;
8317;SDS011;4196;48.926;8.964;2022-10-31T04:57:31;9.30;;;5.60;;
8317;SDS011;4196;48.926;8.964;2022-10-31T05:00:21;7.17;;;5.03;;
8317;SDS011;4196;48.926;8.964;2022-10-31T05:03:10;9.00;;;6.07;;
8317;SDS011;4196;48.926;8.964;2022-10-31T05:05:56;18.00;;;9.80;;
8317;SDS011;4196;48.926;8.964;2022-10-31T05:08:43;9.07;;;6.50;;
8317;SDS011;4196;48.926;8.964;2022-10-31T05:11:30;10.90;;;5.17;;
8317;SDS011;4196;48.926;8.964;2022-10-31T05:14:27;9.67;;;4.77;;
8317;SDS011;4196;48.926;8.964;2022-10-31T05:17:33;11.97;;;4.70;;
8317;SDS011;4196;48.926;8.964;2022-10-31T05:20:40;11.30;;;4.47;;
8317;SDS011;4196;48.926;8.964;2022-10-31T05:24:04;17.50;;;5.00;;
8317;SDS011;4196;48.926;8.964;2022-10-31T05:26:52;14.00;;;5.10;;
8317;SDS011;4196;48.926;8.964;2022-10-31T05:29:39;9.73;;;4.07;;
8317;SDS011;4196;48.926;8.964;2022-10-31T05:32:25;10.47;;;4.53;;
8317;SDS011;4196;48.926;8.964;2022-10-31T05:35:30;7.70;;;4.87;;
8317;SDS011;4196;48.926;8.964;2022-10-31T05:38:36;9.80;;;4.10;;
8317;SDS011;4196;48.926;8.964;2022-10-31T05:41:31;8.30;;;3.97;;
8317;SDS011;4196;48.926;8.964;2022-10-31T05:44:25;8.90;;;4.87;;
8317;SDS011;4196;48.926;8.964;2022-10-31T05:47:23;8.03;;;4.13;;
8317;SDS011;4196;48.926;8.964;2022-10-31T05:50:29;8.70;;;4.43;;
8317;SDS011;4196;48.926;8.964;2022-10-31T05:53:27;7.03;;;3.97;;
8317;SDS011;4196;48.926;8.964;2022-10-31T05:56:14;9.07;;;4.50;;
8317;SDS011;4196;48.926;8.964;2022-10-31T05:59:00;7.57;;;4.00;;
8317;SDS011;4196;48.926;8.964;2022-10-31T06:01:47;8.33;;;5.00;;
8317;SDS011;4196;48.926;8.964;2022-10-31T06:04:56;9.83;;;5.30;;
8317;SDS011;4196;48.926;8.964;2022-10-31T06:07:44;12.40;;;6.20;;
8317;SDS011;4196;48.926;8.964;2022-10-31T06:10:30;10.03;;;4.50;;
8317;SDS011;4196;48.926;8.964;2022-10-31T06:13:17;7.97;;;5.00;;
8317;SDS011;4196;48.926;8.964;2022-10-31T06:16:08;10.10;;;5.10;;
8317;SDS011;4196;48.926;8.964;2022-10-31T06:18:57;9.00;;;6.07;;
8317;SDS011;4196;48.926;8.964;2022-10-31T06:21:44;8.77;;;4.77;;
8317;SDS011;4196;48.926;8.964;2022-10-31T06:24:31;7.67;;;5.67;;
8317;SDS011;4196;48.926;8.964;2022-10-31T06:27:22;9.17;;;5.83;;
8317;SDS011;4196;48.926;8.964;2022-10-31T06:30:09;6.77;;;5.10;;
8317;SDS011;4196;48.926;8.964;2022-10-31T06:33:05;5.67;;;4.10;;
8317;SDS011;4196;48.926;8.964;2022-10-31T06:35:55;7.73;;;4.20;;
8317;SDS011;4196;48.926;8.964;2022-10-31T06:38:43;9.23;;;4.73;;
8317;SDS011;4196;48.926;8.964;2022-10-31T06:41:31;6.97;;;4.23;;
8317;SDS011;4196;48.926;8.964;2022-10-31T06:44:17;7.87;;;4.53;;
8317;SDS011;4196;48.926;8.964;2022-10-31T06:47:30;7.63;;;4.90;;
8317;SDS011;4196;48.926;8.964;2022-10-31T06:50:29;9.30;;;4.70;;
8317;SDS011;4196;48.926;8.964;2022-10-31T06:53:16;6.73;;;3.93;;
8317;SDS011;4196;48.926;8.964;2022-10-31T06:56:02;6.00;;;3.90;;
8317;SDS011;4196;48.926;8.964;2022-10-31T06:58:54;7.10;;;3.53;;
8317;SDS011;4196;48.926;8.964;2022-10-31T07:01:58;6.80;;;4.03;;
8317;SDS011;4196;48.926;8.964;2022-10-31T07:04:45;6.23;;;3.50;;
8317;SDS011;4196;48.926;8.964;2022-10-31T07:07:33;5.33;;;3.60;;
8317;SDS011;4196;48.926;8.964;2022-10-31T07:10:20;7.10;;;4.03;;
8317;SDS011;4196;48.926;8.964;2022-10-31T07:13:13;7.97;;;3.90;;
8317;SDS011;4196;48.926;8.964;2022-10-31T07:16:08;4.80;;;4.10;;
8317;SDS011;4196;48.926;8.964;2022-10-31T07:18:58;6.63;;;4.73;;
8317;SDS011;4196;48.926;8.964;2022-10-31T07:21:44;7.20;;;4.87;;
8317;SDS011;4196;48.926;8.964;2022-10-31T07:24:33;8.83;;;5.57;;
8317;SDS011;4196;48.926;8.964;2022-10-31T07:27:38;6.93;;;4.60;;
8317;SDS011;4196;48.926;8.964;2022-10-31T07:30:30;8.13;;;4.60;;
8317;SDS011;4196;48.926;8.964;2022-10-31T07:33:16;8.70;;;5.43;;
8317;SDS011;4196;48.926;8.964;2022-10-31T07:36:37;4.90;;;4.40;;
8317;SDS011;4196;48.926;8.964;2022-10-31T07:39:24;8.13;;;5.40;;
8317;SDS011;4196;48.926;8.964;2022-10-31T07:42:10;6.10;;;4.13;;
8317;SDS011;4196;48.926;8.964;2022-10-31T07:45:02;6.60;;;4.40;;
8317;SDS011;4196;48.926;8.964;2022-10-31T07:48:15;7.17;;;4.23;;
8317;SDS011;4196;48.926;8.964;2022-10-31T07:51:20;5.87;;;4.23;;
8317;SDS011;4196;48.926;8.964;2022-10-31T07:54:26;5.50;;;3.20;;
8317;SDS011;4196;48.926;8.964;2022-10-31T07:57:12;4.67;;;3.50;;
8317;SDS011;4196;48.926;8.964;2022-10-31T08:00:06;5.80;;;3.77;;
8317;SDS011;4196;48.926;8.964;2022-10-31T08:03:00;6.03;;;3.97;;
8317;SDS011;4196;48.926;8.964;2022-10-31T08:06:07;5.57;;;3.67;;
8317;SDS011;4196;48.926;8.964;2022-10-31T08:09:13;5.30;;;4.00;;
8317;SDS011;4196;48.926;8.964;2022-10-31T08:12:02;5.20;;;4.17;;
8317;SDS011;4196;48.926;8.964;2022-10-31T08:14:50;4.27;;;3.50;;
8317;SDS011;4196;48.926;8.964;2022-10-31T08:17:38;8.03;;;4.53;;
8317;SDS011;4196;48.926;8.964;2022-10-31T08:20:25;5.33;;;4.37;;
8317;SDS011;4196;48.926;8.964;2022-10-31T08:23:13;6.00;;;4.13;;
8317;SDS011;4196;48.926;8.964;2022-10-31T08:26:01;6.17;;;4.00;;
8317;SDS011;4196;48.926;8.964;2022-10-31T08:28:49;4.93;;;3.77;;
8317;SDS011;4196;48.926;8.964;2022-10-31T08:31:38;4.60;;;4.00;;
8317;SDS011;4196;48.926;8.964;2022-10-31T08:34:47;7.17;;;4.73;;
8317;SDS011;4196;48.926;8.964;2022-10-31T08:38:02;7.07;;;5.00;;
8317;SDS011;4196;48.926;8.964;2022-10-31T08:40:49;8.43;;;4.70;;
8317;SDS011;4196;48.926;8.964;2022-10-31T08:43:36;6.53;;;4.10;;
8317;SDS011;4196;48.926;8.964;2022-10-31T08:46:22;6.53;;;4.43;;
8317;SDS011;4196;48.926;8.964;2022-10-31T08:49:08;5.00;;;3.60;;
8317;SDS011;4196;48.926;8.964;2022-10-31T08:51:55;7.10;;;4.30;;
8317;SDS011;4196;48.926;8.964;2022-10-31T08:54:43;6.40;;;3.80;;
8317;SDS011;4196;48.926;8.964;2022-10-31T08:57:53;5.57;;;3.80;;
8317;SDS011;4196;48.926;8.964;2022-10-31T09:00:41;5.87;;;3.63;;
8317;SDS011;4196;48.926;8.964;2022-10-31T09:03:33;4.77;;;3.63;;
8317;SDS011;4196;48.926;8.964;2022-10-31T09:06:19;6.43;;;4.10;;
8317;SDS011;4196;48.926;8.964;2022-10-31T09:09:07;5.57;;;4.20;;
8317;SDS011;4196;48.926;8.964;2022-10-31T09:11:54;7.90;;;4.13;;
8317;SDS011;4196;48.926;8.964;2022-10-31T09:14:59;7.17;;;4.37;;
8317;SDS011;4196;48.926;8.964;2022-10-31T09:17:55;7.37;;;4.70;;
8317;SDS011;4196;48.926;8.964;2022-10-31T09:21:00;8.70;;;4.47;;
8317;SDS011;4196;48.926;8.964;2022-10-31T09:23:49;5.03;;;4.03;;
8317;SDS011;4196;48.926;8.964;2022-10-31T09:26:35;9.23;;;3.97;;
8317;SDS011;4196;48.926;8.964;2022-10-31T09:29:54;10.80;;;4.37;;
8317;SDS011;4196;48.926;8.964;2022-10-31T09:32:40;6.67;;;4.63;;
8317;SDS011;4196;48.926;8.964;2022-10-31T09:35:27;6.80;;;4.27;;
8317;SDS011;4196;48.926;8.964;2022-10-31T09:38:15;6.77;;;4.07;;
8317;SDS011;4196;48.926;8.964;2022-10-31T09:41:07;6.97;;;4.77;;
8317;SDS011;4196;48.926;8.964;2022-10-31T09:50:51;10.83;;;5.60;;
8317;SDS011;4196;48.926;8.964;2022-10-31T09:54:09;9.83;;;4.97;;
8317;SDS011;4196;48.926;8.964;2022-10-31T09:57:00;53.83;;;6.77;;
8317;SDS011;4196;48.926;8.964;2022-10-31T09:59:48;6.57;;;4.43;;
8317;SDS011;4196;48.926;8.964;2022-10-31T10:02:39;7.63;;;4.40;;
8317;SDS011;4196;48.926;8.964;2022-10-31T10:05:38;7.77;;;4.83;;
8317;SDS011;4196;48.926;8.964;2022-10-31T10:08:39;16.97;;;4.83;;
8317;SDS011;4196;48.926;8.964;2022-10-31T10:12:08;7.47;;;4.83;;
8317;SDS011;4196;48.926;8.964;2022-10-31T10:24:24;6.93;;;4.97;;
8317;SDS011;4196;48.926;8.964;2022-10-31T10:30:39;10.90;;;5.37;;
8317;SDS011;4196;48.926;8.964;2022-10-31T10:33:30;7.83;;;5.13;;
8317;SDS011;4196;48.926;8.964;2022-10-31T10:36:22;8.23;;;4.80;;
8317;SDS011;4196;48.926;8.964;2022-10-31T10:39:18;7.67;;;4.93;;
8317;SDS011;4196;48.926;8.964;2022-10-31T10:42:12;9.87;;;6.07;;
8317;SDS011;4196;48.926;8.964;2022-10-31T10:45:20;11.63;;;5.73;;
8317;SDS011;4196;48.926;8.964;2022-10-31T10:48:35;7.27;;;5.37;;
8317;SDS011;4196;48.926;8.964;2022-10-31T10:51:44;7.03;;;5.30;;
8317;SDS011;4196;48.926;8.964;2022-10-31T10:58:07;11.00;;;5.67;;
8317;SDS011;4196;48.926;8.964;2022-10-31T11:00:55;10.37;;;5.23;;
8317;SDS011;4196;48.926;8.964;2022-10-31T11:03:42;10.13;;;5.67;;
8317;SDS011;4196;48.926;8.964;2022-10-31T11:06:28;8.53;;;5.13;;
8317;SDS011;4196;48.926;8.964;2022-10-31T11:09:15;9.50;;;4.73;;
8317;SDS011;4196;48.926;8.964;2022-10-31T11:12:09;10.43;;;6.37;;
8317;SDS011;4196;48.926;8.964;2022-10-31T11:15:24;10.60;;;4.47;;
8317;SDS011;4196;48.926;8.964;2022-10-31T11:18:24;7.23;;;5.27;;
8317;SDS011;4196;48.926;8.964;2022-10-31T11:21:28;8.33;;;5.30;;
8317;SDS011;4196;48.926;8.964;2022-10-31T11:24:17;10.70;;;5.33;;
8317;SDS011;4196;48.926;8.964;2022-10-31T11:27:13;7.27;;;5.03;;
8317;SDS011;4196;48.926;8.964;2022-10-31T11:30:04;7.10;;;4.73;;
8317;SDS011;4196;48.926;8.964;2022-10-31T11:32:52;9.83;;;5.20;;
8317;SDS011;4196;48.926;8.964;2022-10-31T11:35:38;10.17;;;5.40;;
8317;SDS011;4196;48.926;8.964;2022-10-31T11:38:29;7.10;;;4.93;;
8317;SDS011;4196;48.926;8.964;2022-10-31T11:41:26;8.60;;;5.17;;
8317;SDS011;4196;48.926;8.964;2022-10-31T11:44:17;8.60;;;5.73;;
8317;SDS011;4196;48.926;8.964;2022-10-31T11:47:06;7.17;;;5.37;;
8317;SDS011;4196;48.926;8.964;2022-10-31T11:50:02;12.60;;;5.73;;
8317;SDS011;4196;48.926;8.964;2022-10-31T11:53:12;9.27;;;5.30;;
8317;SDS011;4196;48.926;8.964;2022-10-31T11:56:15;13.20;;;6.40;;
8317;SDS011;4196;48.926;8.964;2022-10-31T11:59:03;8.97;;;5.63;;
8317;SDS011;4196;48.926;8.964;2022-10-31T12:01:51;11.10;;;5.73;;
8317;SDS011;4196;48.926;8.964;2022-10-31T12:04:41;8.90;;;5.80;;
8317;SDS011;4196;48.926;8.964;2022-10-31T12:07:32;8.83;;;5.73;;
8317;SDS011;4196;48.926;8.964;2022-10-31T12:10:19;8.93;;;5.57;;
8317;SDS011;4196;48.926;8.964;2022-10-31T12:31:46;12.03;;;6.97;;
8317;SDS011;4196;48.926;8.964;2022-10-31T12:47:11;9.90;;;5.63;;
8317;SDS011;4196;48.926;8.964;2022-10-31T12:50:22;9.23;;;5.47;;
8317;SDS011;4196;48.926;8.964;2022-10-31T13:00:18;7.60;;;5.17;;
8317;SDS011;4196;48.926;8.964;2022-10-31T13:06:27;9.03;;;6.27;;
8317;SDS011;4196;48.926;8.964;2022-10-31T13:09:46;11.10;;;5.87;;
8317;SDS011;4196;48.926;8.964;2022-10-31T13:12:34;8.90;;;5.70;;
8317;SDS011;4196;48.926;8.964;2022-10-31T13:15:29;9.57;;;6.63;;
8317;SDS011;4196;48.926;8.964;2022-10-31T13:18:23;10.43;;;5.97;;
8317;SDS011;4196;48.926;8.964;2022-10-31T13:21:18;12.53;;;7.07;;
8317;SDS011;4196;48.926;8.964;2022-10-31T13:24:12;14.20;;;6.80;;
8317;SDS011;4196;48.926;8.964;2022-10-31T13:27:10;12.20;;;6.67;;
8317;SDS011;4196;48.926;8.964;2022-10-31T13:42:51;10.77;;;6.10;;
8317;SDS011;4196;48.926;8.964;2022-10-31T13:45:51;10.20;;;6.60;;
8317;SDS011;4196;48.926;8.964;2022-10-31T13:48:40;11.43;;;6.60;;
8317;SDS011;4196;48.926;8.964;2022-10-31T13:51:29;11.97;;;6.37;;
8317;SDS011;4196;48.926;8.964;2022-10-31T13:54:39;8.83;;;6.00;;
8317;SDS011;4196;48.926;8.964;2022-10-31T14:03:16;23.00;;;6.17;;
8317;SDS011;4196;48.926;8.964;2022-10-31T14:06:35;9.03;;;5.97;;
8317;SDS011;4196;48.926;8.964;2022-10-31T14:09:33;9.43;;;6.17;;
8317;SDS011;4196;48.926;8.964;2022-10-31T14:12:29;12.30;;;6.83;;
8317;SDS011;4196;48.926;8.964;2022-10-31T14:15:23;11.63;;;6.33;;
8317;SDS011;4196;48.926;8.964;2022-10-31T14:18:25;12.10;;;6.20;;
8317;SDS011;4196;48.926;8.964;2022-10-31T14:27:43;12.63;;;7.07;;
8317;SDS011;4196;48.926;8.964;2022-10-31T14:30:30;10.47;;;6.67;;
8317;SDS011;4196;48.926;8.964;2022-10-31T14:33:18;9.43;;;6.30;;
8317;SDS011;4196;48.926;8.964;2022-10-31T14:36:17;10.20;;;6.57;;
8317;SDS011;4196;48.926;8.964;2022-10-31T14:39:17;13.57;;;6.77;;
8317;SDS011;4196;48.926;8.964;2022-10-31T14:51:21;11.67;;;7.30;;
8317;SDS011;4196;48.926;8.964;2022-10-31T14:54:10;13.53;;;7.27;;
8317;SDS011;4196;48.926;8.964;2022-10-31T14:57:05;11.70;;;7.23;;
8317;SDS011;4196;48.926;8.964;2022-10-31T15:00:01;18.10;;;6.77;;
8317;SDS011;4196;48.926;8.964;2022-10-31T15:06:16;11.93;;;6.53;;
8317;SDS011;4196;48.926;8.964;2022-10-31T15:09:05;12.37;;;6.73;;
8317;SDS011;4196;48.926;8.964;2022-10-31T15:12:23;13.77;;;6.97;;
8317;SDS011;4196;48.926;8.964;2022-10-31T15:15:21;10.70;;;6.63;;
8317;SDS011;4196;48.926;8.964;2022-10-31T15:18:13;13.40;;;7.27;;
8317;SDS011;4196;48.926;8.964;2022-10-31T15:21:03;17.70;;;7.87;;
8317;SDS011;4196;48.926;8.964;2022-10-31T15:23:57;14.17;;;6.80;;
8317;SDS011;4196;48.926;8.964;2022-10-31T15:26:49;13.27;;;8.20;;
8317;SDS011;4196;48.926;8.964;2022-10-31T15:29:46;11.77;;;7.20;;
8317;SDS011;4196;48.926;8.964;2022-10-31T15:32:34;10.33;;;7.70;;
8317;SDS011;4196;48.926;8.964;2022-10-31T15:35:22;12.43;;;7.83;;
8317;SDS011;4196;48.926;8.964;2022-10-31T15:38:13;13.97;;;7.50;;
8317;SDS011;4196;48.926;8.964;2022-10-31T15:43:52;12.93;;;9.00;;
8317;SDS011;4196;48.926;8.964;2022-10-31T15:46:38;13.83;;;8.87;;
8317;SDS011;4196;48.926;8.964;2022-10-31T15:52:15;16.17;;;8.77;;
8317;SDS011;4196;48.926;8.964;2022-10-31T15:57:57;12.67;;;8.40;;
8317;SDS011;4196;48.926;8.964;2022-10-31T16:00:56;13.00;;;7.93;;
8317;SDS011;4196;48.926;8.964;2022-10-31T16:03:44;16.97;;;8.53;;
8317;SDS011;4196;48.926;8.964;2022-10-31T16:07:12;14.23;;;8.27;;
8317;SDS011;4196;48.926;8.964;2022-10-31T16:10:21;14.00;;;9.03;;
8317;SDS011;4196;48.926;8.964;2022-10-31T16:13:09;14.20;;;8.70;;
8317;SDS011;4196;48.926;8.964;2022-10-31T16:16:15;12.63;;;8.30;;
8317;SDS011;4196;48.926;8.964;2022-10-31T16:19:22;14.17;;;8.40;;
8317;SDS011;4196;48.926;8.964;2022-10-31T16:22:14;17.00;;;8.67;;
8317;SDS011;4196;48.926;8.964;2022-10-31T16:25:11;16.27;;;8.93;;
8317;SDS011;4196;48.926;8.964;2022-10-31T16:28:04;21.40;;;11.23;;
8317;SDS011;4196;48.926;8.964;2022-10-31T16:30:59;17.97;;;10.30;;
8317;SDS011;4196;48.926;8.964;2022-10-31T16:33:45;16.10;;;10.10;;
8317;SDS011;4196;48.926;8.964;2022-10-31T16:36:32;20.37;;;10.67;;
8317;SDS011;4196;48.926;8.964;2022-10-31T16:39:24;20.67;;;10.47;;
8317;SDS011;4196;48.926;8.964;2022-10-31T16:42:10;14.27;;;9.50;;
8317;SDS011;4196;48.926;8.964;2022-10-31T16:44:56;14.73;;;9.40;;
8317;SDS011;4196;48.926;8.964;2022-10-31T16:47:42;17.10;;;9.97;;
8317;SDS011;4196;48.926;8.964;2022-10-31T16:50:29;19.87;;;10.27;;
8317;SDS011;4196;48.926;8.964;2022-10-31T16:53:15;24.23;;;14.33;;
8317;SDS011;4196;48.926;8.964;2022-10-31T16:56:03;30.37;;;16.13;;
8317;SDS011;4196;48.926;8.964;2022-10-31T16:58:50;23.10;;;14.53;;
8317;SDS011;4196;48.926;8.964;2022-10-31T17:01:37;14.07;;;8.87;;
8317;SDS011;4196;48.926;8.964;2022-10-31T17:04:25;16.57;;;9.30;;
8317;SDS011;4196;48.926;8.964;2022-10-31T17:07:12;14.83;;;9.33;;
8317;SDS011;4196;48.926;8.964;2022-10-31T17:09:58;18.83;;;9.93;;
8317;SDS011;4196;48.926;8.964;2022-10-31T17:12:45;22.20;;;10.37;;
8317;SDS011;4196;48.926;8.964;2022-10-31T17:15:37;30.00;;;17.93;;
8317;SDS011;4196;48.926;8.964;2022-10-31T17:18:29;38.40;;;24.60;;
8317;SDS011;4196;48.926;8.964;2022-10-31T17:21:20;21.30;;;13.57;;
8317;SDS011;4196;48.926;8.964;2022-10-31T17:24:12;19.03;;;10.07;;
8317;SDS011;4196;48.926;8.964;2022-10-31T17:26:59;22.67;;;13.20;;
8317;SDS011;4196;48.926;8.964;2022-10-31T17:29:46;20.43;;;13.13;;
8317;SDS011;4196;48.926;8.964;2022-10-31T17:32:32;16.80;;;11.67;;
8317;SDS011;4196;48.926;8.964;2022-10-31T17:35:18;21.63;;;12.37;;
8317;SDS011;4196;48.926;8.964;2022-10-31T17:38:05;17.00;;;10.03;;
8317;SDS011;4196;48.926;8.964;2022-10-31T17:40:51;20.00;;;11.47;;
8317;SDS011;4196;48.926;8.964;2022-10-31T17:43:37;26.37;;;14.63;;
8317;SDS011;4196;48.926;8.964;2022-10-31T17:46:24;53.37;;;25.03;;
8317;SDS011;4196;48.926;8.964;2022-10-31T17:49:11;59.80;;;29.47;;
8317;SDS011;4196;48.926;8.964;2022-10-31T17:51:57;40.87;;;22.63;;
8317;SDS011;4196;48.926;8.964;2022-10-31T17:54:43;25.27;;;15.53;;
8317;SDS011;4196;48.926;8.964;2022-10-31T17:57:34;27.70;;;14.17;;
8317;SDS011;4196;48.926;8.964;2022-10-31T18:00:21;19.07;;;12.37;;
8317;SDS011;4196;48.926;8.964;2022-10-31T18:03:10;23.67;;;12.83;;
8317;SDS011;4196;48.926;8.964;2022-10-31T18:05:57;27.03;;;12.50;;
8317;SDS011;4196;48.926;8.964;2022-10-31T18:08:44;30.00;;;15.73;;
8317;SDS011;4196;48.926;8.964;2022-10-31T18:11:31;31.97;;;16.20;;
8317;SDS011;4196;48.926;8.964;2022-10-31T18:14:18;31.77;;;14.97;;
8317;SDS011;4196;48.926;8.964;2022-10-31T18:17:04;28.53;;;14.10;;
8317;SDS011;4196;48.926;8.964;2022-10-31T18:19:53;28.23;;;14.87;;
8317;SDS011;4196;48.926;8.964;2022-10-31T18:22:40;35.30;;;19.03;;
8317;SDS011;4196;48.926;8.964;2022-10-31T18:25:26;35.13;;;18.77;;
8317;SDS011;4196;48.926;8.964;2022-10-31T18:28:12;32.87;;;18.23;;
8317;SDS011;4196;48.926;8.964;2022-10-31T18:30:59;45.43;;;22.97;;
8317;SDS011;4196;48.926;8.964;2022-10-31T18:33:45;38.03;;;20.90;;
8317;SDS011;4196;48.926;8.964;2022-10-31T18:36:32;50.53;;;28.23;;
8317;SDS011;4196;48.926;8.964;2022-10-31T18:39:18;39.40;;;21.10;;
8317;SDS011;4196;48.926;8.964;2022-10-31T18:42:04;30.30;;;16.40;;
8317;SDS011;4196;48.926;8.964;2022-10-31T18:44:51;22.93;;;12.17;;
8317;SDS011;4196;48.926;8.964;2022-10-31T18:47:37;20.17;;;10.83;;
8317;SDS011;4196;48.926;8.964;2022-10-31T18:50:24;17.37;;;10.67;;
8317;SDS011;4196;48.926;8.964;2022-10-31T18:53:10;15.93;;;11.10;;
8317;SDS011;4196;48.926;8.964;2022-10-31T18:55:57;16.43;;;9.80;;
8317;SDS011;4196;48.926;8.964;2022-10-31T18:58:43;18.63;;;10.63;;
8317;SDS011;4196;48.926;8.964;2022-10-31T19:01:30;18.27;;;10.63;;
8317;SDS011;4196;48.926;8.964;2022-10-31T19:04:17;17.47;;;9.83;;
8317;SDS011;4196;48.926;8.964;2022-10-31T19:07:03;17.27;;;10.47;;
8317;SDS011;4196;48.926;8.964;2022-10-31T19:09:49;19.90;;;10.40;;
8317;SDS011;4196;48.926;8.964;2022-10-31T19:12:35;18.37;;;11.17;;
8317;SDS011;4196;48.926;8.964;2022-10-31T19:15:22;18.63;;;10.87;;
8317;SDS011;4196;48.926;8.964;2022-10-31T19:18:08;19.93;;;11.17;;
8317;SDS011;4196;48.926;8.964;2022-10-31T19:20:55;20.83;;;10.27;;
8317;SDS011;4196;48.926;8.964;2022-10-31T19:23:41;18.40;;;10.83;;
8317;SDS011;4196;48.926;8.964;2022-10-31T19:26:29;19.13;;;10.67;;
8317;SDS011;4196;48.926;8.964;2022-10-31T19:29:19;19.90;;;10.57;;
8317;SDS011;4196;48.926;8.964;2022-10-31T19:32:05;18.37;;;11.27;;
8317;SDS011;4196;48.926;8.964;2022-10-31T19:34:52;17.53;;;10.53;;
8317;SDS011;4196;48.926;8.964;2022-10-31T19:37:38;22.90;;;11.03;;
8317;SDS011;4196;48.926;8.964;2022-10-31T19:40:25;20.80;;;10.87;;
8317;SDS011;4196;48.926;8.964;2022-10-31T19:43:11;21.43;;;11.10;;
8317;SDS011;4196;48.926;8.964;2022-10-31T19:45:59;21.03;;;12.83;;
8317;SDS011;4196;48.926;8.964;2022-10-31T19:48:46;17.67;;;10.13;;
8317;SDS011;4196;48.926;8.964;2022-10-31T19:51:32;24.53;;;12.13;;
8317;SDS011;4196;48.926;8.964;2022-10-31T19:54:19;20.93;;;11.13;;
8317;SDS011;4196;48.926;8.964;2022-10-31T19:57:05;23.00;;;11.20;;
8317;SDS011;4196;48.926;8.964;2022-10-31T19:59:51;25.83;;;15.07;;